createdAt,value
2018-07-22T00:00:44.514Z,88.00
2018-07-22T00:04:17.772Z,88.00
2018-07-22T00:07:51.040Z,88.40
2018-07-22T00:11:24.266Z,88.60
2018-07-22T00:18:30.525Z,88.20
2018-07-22T00:22:03.876Z,88.30
2018-07-22T00:25:37.156Z,88.20
2018-07-22T00:29:10.427Z,88.50
2018-07-22T00:32:43.686Z,88.60
2018-07-22T00:36:16.936Z,88.70
2018-07-22T00:39:50.190Z,88.40
2018-07-22T00:43:23.446Z,88.50
2018-07-22T00:46:56.696Z,88.70
2018-07-22T00:50:29.936Z,89.00
2018-07-22T00:54:03.200Z,88.90
2018-07-22T00:57:36.466Z,88.80
2018-07-22T01:08:15.739Z,88.50
2018-07-22T01:26:00.962Z,87.90
2018-07-22T01:29:34.247Z,88.00
2018-07-22T01:33:07.509Z,87.90
2018-07-22T01:36:40.760Z,87.70
2018-07-22T01:40:13.986Z,87.50
2018-07-22T01:43:47.246Z,87.30
2018-07-22T01:47:20.496Z,86.70
2018-07-22T01:50:53.737Z,86.90
2018-07-22T01:54:26.993Z,87.10
2018-07-22T01:58:00.231Z,87.20
2018-07-22T02:01:33.499Z,87.40
2018-07-22T02:05:06.763Z,87.60
2018-07-22T02:08:40.008Z,87.80
2018-07-22T02:12:13.248Z,87.70
2018-07-22T02:15:46.505Z,87.50
2018-07-22T02:19:19.752Z,87.20
2018-07-22T02:22:53.017Z,87.40
2018-07-22T02:29:59.309Z,87.80
2018-07-22T02:37:05.566Z,87.90
2018-07-22T02:40:38.800Z,88.00
2018-07-22T02:51:18.080Z,88.00
2018-07-22T02:54:51.336Z,88.20
2018-07-22T02:58:24.589Z,88.10
2018-07-22T03:01:57.848Z,88.10
2018-07-22T03:05:31.100Z,88.20
2018-07-22T03:09:06.060Z,88.10
2018-07-22T03:12:39.304Z,88.30
2018-07-22T03:16:12.544Z,88.70
2018-07-22T03:19:45.782Z,88.70
2018-07-22T03:23:19.042Z,89.00
2018-07-22T03:30:25.288Z,89.20
2018-07-22T03:33:58.549Z,89.40
2018-07-22T03:37:31.805Z,89.40
2018-07-22T03:41:05.064Z,89.00
2018-07-22T03:44:38.308Z,89.00
2018-07-22T03:48:11.564Z,89.20
2018-07-22T03:51:44.802Z,89.50
2018-07-22T03:55:18.052Z,89.50
2018-07-22T03:58:51.308Z,89.50
2018-07-22T04:02:24.572Z,89.60
2018-07-22T04:05:57.834Z,89.50
2018-07-22T04:13:04.096Z,89.50
2018-07-22T04:16:37.341Z,89.70
2018-07-22T04:20:10.584Z,89.40
2018-07-22T04:23:43.884Z,89.00
2018-07-22T04:27:17.168Z,88.90
2018-07-22T04:30:50.414Z,88.70
2018-07-22T04:34:23.661Z,88.30
2018-07-22T04:37:56.935Z,88.40
2018-07-22T04:45:03.185Z,88.00
2018-07-22T04:48:36.436Z,88.10
2018-07-22T04:52:09.684Z,88.00
2018-07-22T04:55:42.945Z,88.00
2018-07-22T04:59:16.216Z,87.90
2018-07-22T05:06:22.493Z,87.40
2018-07-22T05:09:55.733Z,87.70
2018-07-22T05:13:28.979Z,87.50
2018-07-22T05:17:02.245Z,87.40
2018-07-22T05:20:35.477Z,87.00
2018-07-22T05:24:08.771Z,86.60
2018-07-22T05:27:42.048Z,86.60
2018-07-22T05:31:15.279Z,86.70
2018-07-22T05:34:48.577Z,86.80
2018-07-22T05:38:21.820Z,86.50
2018-07-22T05:41:55.095Z,86.30
2018-07-22T05:45:28.654Z,86.70
2018-07-22T05:49:01.920Z,87.00
2018-07-22T05:52:35.311Z,86.50
2018-07-22T05:56:08.540Z,86.60
2018-07-22T05:59:41.804Z,86.80
2018-07-22T06:03:15.114Z,86.10
2018-07-22T06:06:48.340Z,86.00
2018-07-22T06:10:21.620Z,85.30
2018-07-22T06:21:00.927Z,84.50
2018-07-22T06:24:34.201Z,84.20
2018-07-22T06:28:07.433Z,84.20
2018-07-22T06:31:40.684Z,84.00
2018-07-22T06:35:14.009Z,83.70
2018-07-22T06:38:47.284Z,83.70
2018-07-22T06:42:20.556Z,84.00
2018-07-22T06:45:53.811Z,83.90
2018-07-22T06:49:27.056Z,83.20
2018-07-22T06:53:00.397Z,82.80
2018-07-22T06:56:33.711Z,82.90
2018-07-22T07:03:40.068Z,83.70
2018-07-22T07:07:13.320Z,83.80
2018-07-22T07:10:46.619Z,84.30
2018-07-22T07:24:59.396Z,85.90
2018-07-22T07:28:32.717Z,86.00
2018-07-22T07:39:13.239Z,86.60
2018-07-22T07:46:19.477Z,86.50
2018-07-22T07:49:52.732Z,86.40
2018-07-22T07:56:59.018Z,86.20
2018-07-22T08:00:32.316Z,86.30
2018-07-22T08:04:05.608Z,86.10
2018-07-22T08:07:38.852Z,86.10
2018-07-22T08:11:12.099Z,85.30
2018-07-22T08:14:45.348Z,85.20
2018-07-22T08:18:18.612Z,85.50
2018-07-22T08:21:51.973Z,85.50
2018-07-22T08:25:25.175Z,85.00
2018-07-22T08:29:34.301Z,85.90
2018-07-22T08:33:07.555Z,86.20
2018-07-22T08:36:40.804Z,85.90
2018-07-22T08:40:14.081Z,86.30
2018-07-22T08:43:47.332Z,87.00
2018-07-22T08:47:20.562Z,86.40
2018-07-22T08:50:53.829Z,85.80
2018-07-22T08:54:27.077Z,85.20
2018-07-22T08:58:00.329Z,85.20
2018-07-22T09:01:33.680Z,85.10
2018-07-22T09:05:07.020Z,84.40
2018-07-22T09:08:40.296Z,84.00
2018-07-22T09:12:13.569Z,83.80
2018-07-22T09:15:46.813Z,84.30
2018-07-22T09:19:20.074Z,84.60
2018-07-22T09:22:53.334Z,84.70
2018-07-22T09:26:26.592Z,84.00
2018-07-22T09:29:59.850Z,83.10
2018-07-22T09:33:33.096Z,83.70
2018-07-22T09:37:06.347Z,83.50
2018-07-22T09:40:39.603Z,83.40
2018-07-22T09:44:12.853Z,83.60
2018-07-22T09:47:46.177Z,83.80
2018-07-22T09:54:52.441Z,83.20
2018-07-22T09:58:25.729Z,81.80
2018-07-22T10:01:58.968Z,81.30
2018-07-22T10:05:32.728Z,82.00
2018-07-22T10:09:08.338Z,81.90
2018-07-22T10:12:41.600Z,80.10
2018-07-22T10:16:15.089Z,79.10
2018-07-22T10:19:48.324Z,78.90
2018-07-22T10:23:21.612Z,78.90
2018-07-22T10:26:54.845Z,78.70
2018-07-22T10:30:28.110Z,78.40
2018-07-22T10:34:01.492Z,78.60
2018-07-22T10:37:34.737Z,78.40
2018-07-22T10:41:08.036Z,78.20
2018-07-22T10:48:14.376Z,78.40
2018-07-22T10:51:47.648Z,76.70
2018-07-22T10:55:20.908Z,76.70
2018-07-22T10:58:54.141Z,76.60
2018-07-22T11:02:27.514Z,76.70
2018-07-22T11:06:00.748Z,76.70
2018-07-22T11:09:34.005Z,76.90
2018-07-22T11:13:07.270Z,77.10
2018-07-22T11:16:40.531Z,76.40
2018-07-22T11:20:13.776Z,75.40
2018-07-22T11:23:47.061Z,75.60
2018-07-22T11:27:20.316Z,75.10
2018-07-22T11:30:53.576Z,74.50
2018-07-22T11:34:26.836Z,74.50
2018-07-22T11:38:00.148Z,73.40
2018-07-22T11:41:33.405Z,72.60
2018-07-22T11:45:06.653Z,72.10
2018-07-22T11:48:39.931Z,70.90
2018-07-22T11:52:13.196Z,70.30
2018-07-22T11:55:46.445Z,69.60
2018-07-22T11:59:19.708Z,69.50
2018-07-22T12:02:52.956Z,68.70
2018-07-22T12:06:26.240Z,68.20
2018-07-22T12:09:59.485Z,67.40
2018-07-22T12:13:32.728Z,67.10
2018-07-22T12:17:06.011Z,66.50
2018-07-22T12:20:39.288Z,65.80
2018-07-22T12:24:12.652Z,65.60
2018-07-22T12:27:45.914Z,65.60
2018-07-22T12:31:19.559Z,66.00
2018-07-22T12:41:58.962Z,65.90
2018-07-22T12:45:32.221Z,65.30
2018-07-22T12:49:05.568Z,65.60
2018-07-22T12:52:38.839Z,65.50
2018-07-22T12:56:12.082Z,65.40
2018-07-22T12:59:45.336Z,65.40
2018-07-22T13:03:18.634Z,65.80
2018-07-22T13:06:51.921Z,65.70
2018-07-22T13:10:25.572Z,65.70
2018-07-22T13:13:58.866Z,65.80
2018-07-22T13:21:05.133Z,64.70
2018-07-22T13:24:38.501Z,64.00
2018-07-22T13:28:11.891Z,64.20
2018-07-22T13:31:45.126Z,64.00
2018-07-22T13:35:18.400Z,63.10
2018-07-22T13:38:51.658Z,62.70
2018-07-22T13:42:24.916Z,62.60
2018-07-22T13:45:58.202Z,61.80
2018-07-22T13:49:31.445Z,61.30
2018-07-22T13:53:04.825Z,60.60
2018-07-22T13:56:38.104Z,60.70
2018-07-22T14:00:11.346Z,60.60
2018-07-22T14:03:44.638Z,60.30
2018-07-22T14:07:17.976Z,60.70
2018-07-22T14:10:51.217Z,60.60
2018-07-22T14:14:24.455Z,60.80
2018-07-22T14:17:58.147Z,60.90
2018-07-22T14:21:31.443Z,60.30
2018-07-22T14:25:04.694Z,60.50
2018-07-22T14:28:39.739Z,60.00
2018-07-22T14:32:13.645Z,60.10
2018-07-22T14:35:46.878Z,60.10
2018-07-22T14:39:20.137Z,60.00
2018-07-22T14:46:26.392Z,60.90
2018-07-22T14:49:59.669Z,60.60
2018-07-22T14:53:32.973Z,60.80
2018-07-22T14:57:06.377Z,60.10
2018-07-22T15:00:39.608Z,59.90
2018-07-22T15:04:12.920Z,59.80
2018-07-22T15:07:46.178Z,59.70
2018-07-22T15:11:19.416Z,59.40
2018-07-22T15:18:31.276Z,59.90
2018-07-22T15:22:04.598Z,59.90
2018-07-22T15:25:37.841Z,59.80
2018-07-22T15:29:11.173Z,59.90
2018-07-22T15:32:44.384Z,59.80
2018-07-22T15:36:17.832Z,59.80
2018-07-22T15:39:51.096Z,59.90
2018-07-22T15:43:24.360Z,60.00
2018-07-22T15:46:57.588Z,59.90
2018-07-22T15:50:30.829Z,59.60
2018-07-22T15:54:04.093Z,59.60
2018-07-22T15:57:37.385Z,59.20
2018-07-22T16:01:10.673Z,58.90
2018-07-22T16:04:43.921Z,59.10
2018-07-22T16:08:17.176Z,59.50
2018-07-22T16:15:23.448Z,59.20
2018-07-22T16:18:56.743Z,59.40
2018-07-22T16:22:30.068Z,59.60
2018-07-22T16:26:03.352Z,59.40
2018-07-22T16:29:36.674Z,59.60
2018-07-22T16:33:09.960Z,59.80
2018-07-22T16:36:43.279Z,60.00
2018-07-22T16:40:16.545Z,59.90
2018-07-22T16:43:49.804Z,60.20
2018-07-22T16:47:23.307Z,60.10
2018-07-22T16:50:56.620Z,60.40
2018-07-22T16:54:29.884Z,60.30
2018-07-22T16:58:03.134Z,60.80
2018-07-22T17:01:36.407Z,60.80
2018-07-22T17:05:09.660Z,61.00
2018-07-22T17:08:42.927Z,61.40
2018-07-22T17:12:16.211Z,61.60
2018-07-22T17:15:49.598Z,62.10
2018-07-22T17:19:22.944Z,62.30
2018-07-22T17:22:56.212Z,62.60
2018-07-22T17:26:29.516Z,62.70
2018-07-22T17:30:02.785Z,62.60
2018-07-22T17:37:11.815Z,63.30
2018-07-22T17:40:45.062Z,63.40
2018-07-22T17:44:18.295Z,63.70
2018-07-22T17:47:51.616Z,64.00
2018-07-22T17:51:24.957Z,64.10
2018-07-22T17:54:58.272Z,64.30
2018-07-22T17:58:31.616Z,64.80
2018-07-22T18:02:04.875Z,65.00
2018-07-22T18:05:38.103Z,65.40
2018-07-22T18:09:11.348Z,65.80
2018-07-22T18:12:44.604Z,66.30
2018-07-22T18:16:17.940Z,66.80
2018-07-22T18:19:51.229Z,67.10
2018-07-22T18:23:24.543Z,67.50
2018-07-22T18:26:58.230Z,67.30
2018-07-22T18:30:32.049Z,67.20
2018-07-22T18:34:05.275Z,67.40
2018-07-22T18:41:11.539Z,67.80
2018-07-22T18:44:44.779Z,68.10
2018-07-22T18:51:51.059Z,68.80
2018-07-22T18:55:25.128Z,68.80
2018-07-22T18:58:58.535Z,68.70
2018-07-22T19:02:31.774Z,69.10
2018-07-22T19:06:05.037Z,69.30
2018-07-22T19:09:38.295Z,69.40
2018-07-22T19:13:11.581Z,69.60
2018-07-22T19:16:44.803Z,69.80
2018-07-22T19:27:24.043Z,70.80
2018-07-22T19:30:57.292Z,70.90
2018-07-22T19:34:30.652Z,71.00
2018-07-22T19:38:03.913Z,71.10
2018-07-22T19:41:37.367Z,71.30
2018-07-22T19:45:10.724Z,72.40
2018-07-22T19:48:44.009Z,71.60
2018-07-22T19:52:17.248Z,71.90
2018-07-22T19:55:50.544Z,71.90
2018-07-22T19:59:23.813Z,72.10
2018-07-22T20:02:57.127Z,72.10
2018-07-22T20:10:03.348Z,72.30
2018-07-22T20:13:36.615Z,72.20
2018-07-22T20:17:09.858Z,72.30
2018-07-22T20:20:43.707Z,72.30
2018-07-22T20:24:17.041Z,72.50
2018-07-22T20:27:50.220Z,73.10
2018-07-22T20:31:23.483Z,73.40
2018-07-22T20:34:56.740Z,73.70
2018-07-22T20:38:29.995Z,73.80
2018-07-22T20:42:03.225Z,73.70
2018-07-22T20:45:36.460Z,73.80
2018-07-22T20:49:09.704Z,74.10
2018-07-22T20:52:42.968Z,74.20
2018-07-22T20:56:16.201Z,74.60
2018-07-22T20:59:49.456Z,74.90
2018-07-22T21:03:22.968Z,75.10
2018-07-22T21:06:56.192Z,75.00
2018-07-22T21:10:29.460Z,75.30
2018-07-22T21:14:02.712Z,75.40
2018-07-22T21:17:36.133Z,75.50
2018-07-22T21:21:09.372Z,75.50
2018-07-22T21:24:42.624Z,75.50
2018-07-22T21:31:48.872Z,75.70
2018-07-22T21:35:22.116Z,75.80
2018-07-22T21:38:55.335Z,76.00
2018-07-22T21:42:28.807Z,76.20
2018-07-22T21:49:35.048Z,76.40
2018-07-22T21:53:08.320Z,76.60
2018-07-22T21:56:41.555Z,76.70
2018-07-22T22:00:34.687Z,76.80
2018-07-22T22:04:07.956Z,76.90
2018-07-22T22:11:14.179Z,77.30
2018-07-22T22:14:47.424Z,78.00
2018-07-22T22:18:20.681Z,78.40
2018-07-22T22:21:53.927Z,78.70
2018-07-22T22:25:27.169Z,79.00
2018-07-22T22:29:00.411Z,79.00
2018-07-22T22:32:33.690Z,79.10
2018-07-22T22:36:06.938Z,79.30
2018-07-22T22:39:40.185Z,79.30
2018-07-22T22:43:13.426Z,79.30
2018-07-22T22:46:46.658Z,79.30
2018-07-22T22:50:19.911Z,79.30
2018-07-22T22:53:53.148Z,79.40
2018-07-22T23:00:59.620Z,79.60
2018-07-22T23:04:32.874Z,80.40
2018-07-22T23:08:06.110Z,79.90
2018-07-22T23:11:39.768Z,79.90
2018-07-22T23:18:45.987Z,80.20
2018-07-22T23:22:19.219Z,80.40
2018-07-22T23:25:52.458Z,80.60
2018-07-22T23:32:58.725Z,81.00
2018-07-22T23:36:31.944Z,80.90
2018-07-22T23:40:05.180Z,81.10
2018-07-22T23:43:38.571Z,81.30
2018-07-22T23:47:11.793Z,81.30
2018-07-22T23:50:45.020Z,81.60
2018-07-22T23:54:18.291Z,81.70
2018-07-22T23:57:51.524Z,81.80
